Time;durP1;ratioP1;P1;durP2;ratioP2;P2;SDS_P1;SDS_P2;PMS_P1;PMS_P2;Temp;Humidity;BMP_temperature;BMP_pressure;BME280_temperature;BME280_humidity;BME280_pressure;Samples;Min_cycle;Max_cycle;Signal;HPM_P1;HPM_P2
2022/03/12 00:01:30;;;;;;;10.80;5.85;;;;;;;-3.58;53.58;101931.17;1762821;79;21089;-51
2022/03/12 00:03:59;;;;;;;12.55;5.47;;;;;;;-3.56;53.91;101932.91;1759287;80;21975;-52
2022/03/12 00:06:28;;;;;;;9.70;5.70;;;;;;;-3.55;53.69;101927.32;1740827;81;21129;-52
2022/03/12 00:08:55;;;;;;;11.63;6.05;;;;;;;-3.55;53.69;101927.32;1759355;80;20994;-52
2022/03/12 00:11:27;;;;;;;15.25;6.97;;;;;;;-3.57;53.32;101923.89;1768059;79;21127;-52
2022/03/12 00:13:59;;;;;;;13.68;7.15;;;;;;;-3.60;53.06;101927.73;1760595;79;21140;-52
2022/03/12 00:16:26;;;;;;;14.23;6.87;;;;;;;-3.63;52.49;101918.31;1750480;81;22391;-52
2022/03/12 00:18:57;;;;;;;13.83;6.60;;;;;;;-3.63;52.25;101922.17;1754729;80;20995;-52
2022/03/12 00:21:29;;;;;;;14.68;7.85;;;;;;;-3.63;51.94;101915.73;1754978;79;21040;-53
2022/03/12 00:23:58;;;;;;;15.25;7.50;;;;;;;-3.60;51.78;101909.72;1759250;80;21500;-52
2022/03/12 00:26:25;;;;;;;17.17;8.08;;;;;;;-3.59;51.79;101914.87;1760933;79;21456;-52
2022/03/12 00:28:54;;;;;;;17.37;8.33;;;;;;;-3.60;51.67;101918.33;1757702;79;21019;-51
2022/03/12 00:31:22;;;;;;;21.07;9.85;;;;;;;-3.61;51.61;101906.30;1756657;79;21582;-51
2022/03/12 00:33:49;;;;;;;17.60;8.90;;;;;;;-3.65;51.52;101903.27;1758329;79;21626;-51
2022/03/12 00:36:16;;;;;;;19.73;9.08;;;;;;;-3.64;51.32;101905.00;1754524;79;21202;-51
2022/03/12 00:38:45;;;;;;;15.75;8.95;;;;;;;-3.64;51.15;101901.58;1754951;80;21121;-51
2022/03/12 00:41:12;;;;;;;20.85;9.48;;;;;;;-3.64;50.96;101900.30;1753664;79;21026;-52
2022/03/12 00:43:40;;;;;;;16.85;9.98;;;;;;;-3.63;50.73;101895.56;1751632;79;21034;-51
2022/03/12 00:46:07;;;;;;;19.42;9.78;;;;;;;-3.61;50.57;101896.01;1754327;79;21030;-51
2022/03/12 00:48:34;;;;;;;20.85;10.95;;;;;;;-3.60;50.39;101891.72;1758949;80;21113;-51
2022/03/12 00:51:01;;;;;;;23.10;11.45;;;;;;;-3.56;50.19;101892.17;1757054;79;21519;-52
2022/03/12 00:53:29;;;;;;;20.77;10.38;;;;;;;-3.55;49.92;101890.89;1754669;80;21491;-52
2022/03/12 00:55:56;;;;;;;23.30;11.45;;;;;;;-3.56;49.92;101893.02;1757082;79;21077;-52
2022/03/12 00:58:24;;;;;;;20.60;11.33;;;;;;;-3.57;49.83;101886.14;1753344;80;21001;-53
2022/03/12 01:00:50;;;;;;;25.68;11.88;;;;;;;-3.64;49.88;101881.84;1753768;79;21096;-53
2022/03/12 01:03:17;;;;;;;18.17;10.85;;;;;;;-3.65;49.99;101890.84;1735886;81;21051;-52
2022/03/12 01:05:55;;;;;;;18.60;11.15;;;;;;;-3.64;50.08;101885.70;1754039;79;21057;-52
2022/03/12 01:08:23;;;;;;;19.80;10.55;;;;;;;-3.63;49.95;101881.00;1758535;79;21114;-52
2022/03/12 01:10:52;;;;;;;19.12;10.48;;;;;;;-3.64;49.96;101876.70;1758635;79;21057;-52
2022/03/12 01:13:21;;;;;;;19.17;11.57;;;;;;;-3.65;50.09;101875.41;1753476;79;21158;-52
2022/03/12 01:15:48;;;;;;;24.45;11.30;;;;;;;-3.62;50.22;101876.70;1756327;79;21073;-52
2022/03/12 01:18:19;;;;;;;18.70;9.18;;;;;;;-3.58;50.21;101879.30;1766320;79;21081;-53
2022/03/12 01:20:45;;;;;;;20.72;9.40;;;;;;;-3.62;50.28;101876.70;1756661;80;21069;-52
2022/03/12 01:23:14;;;;;;;18.82;10.15;;;;;;;-3.67;50.56;101866.39;1753712;80;21078;-52
2022/03/12 01:25:43;;;;;;;16.77;8.35;;;;;;;-3.70;51.20;101867.67;1754445;80;21534;-53
2022/03/12 01:28:10;;;;;;;18.67;9.55;;;;;;;-3.72;51.41;101858.25;1753483;81;21079;-53
2022/03/12 01:30:37;;;;;;;20.02;9.35;;;;;;;-3.74;51.69;101858.23;1746093;80;21158;-53
2022/03/12 01:33:04;;;;;;;14.70;9.08;;;;;;;-3.75;51.91;101855.22;1760861;80;21521;-53
2022/03/12 01:35:31;;;;;;;14.87;8.38;;;;;;;-3.74;51.88;101860.81;1731907;81;21085;-52
2022/03/12 01:38:01;;;;;;;16.37;9.48;;;;;;;-3.76;51.89;101857.38;1739687;80;21238;-52
2022/03/12 01:40:30;;;;;;;20.85;9.80;;;;;;;-3.80;52.00;101856.52;1753041;81;21055;-53
2022/03/12 01:42:56;;;;;;;26.85;10.30;;;;;;;-3.82;51.94;101853.49;1758056;80;21099;-52
2022/03/12 01:45:27;;;;;;;16.55;9.05;;;;;;;-3.83;51.88;101856.50;1751340;80;21122;-53
2022/03/12 01:48:03;;;;;;;15.90;8.53;;;;;;;-3.86;51.98;101859.06;1738984;81;21038;-52
2022/03/12 01:50:33;;;;;;;14.63;7.97;;;;;;;-3.88;51.93;101853.47;1733645;81;21223;-52
2022/03/12 01:53:04;;;;;;;18.87;9.60;;;;;;;-3.93;52.06;101860.75;1731726;81;22215;-53
2022/03/12 01:55:31;;;;;;;18.77;9.35;;;;;;;-3.91;52.27;101858.19;1738944;81;21083;-53
2022/03/12 01:58:02;;;;;;;19.98;10.65;;;;;;;-3.91;52.27;101858.19;1734789;81;21101;-53
2022/03/12 02:00:43;;;;;;;22.22;10.32;;;;;;;-3.91;52.33;101863.33;1733145;81;21070;-52
2022/03/12 02:03:11;;;;;;;18.02;10.30;;;;;;;-3.89;52.29;101860.77;1737148;81;22220;-53
2022/03/12 02:05:38;;;;;;;18.02;10.00;;;;;;;-3.92;52.36;101861.59;1738980;81;21061;-52
2022/03/12 02:08:07;;;;;;;21.80;11.28;;;;;;;-4.00;52.52;101862.88;1729006;81;21236;-52
2022/03/12 02:10:36;;;;;;;17.73;12.10;;;;;;;-4.03;52.80;101864.14;1725646;81;21069;-53
2022/03/12 02:13:03;;;;;;;25.05;13.13;;;;;;;-4.05;52.96;101864.97;1733966;81;21113;-52
2022/03/12 02:15:31;;;;;;;20.32;11.75;;;;;;;-4.08;53.27;101862.38;1738171;81;21041;-53
2022/03/12 02:17:59;;;;;;;24.82;15.32;;;;;;;-4.07;53.40;101866.69;1736716;81;21641;-53
2022/03/12 02:20:25;;;;;;;24.02;12.75;;;;;;;-4.04;53.50;101862.41;1697591;82;21129;-52
2022/03/12 02:22:55;;;;;;;20.12;11.83;;;;;;;-3.98;53.71;101853.88;1735696;81;21674;-52
2022/03/12 02:25:32;;;;;;;23.73;12.13;;;;;;;-3.94;53.86;101857.73;1733765;81;21546;-52
2022/03/12 02:28:01;;;;;;;22.85;13.25;;;;;;;-3.91;53.70;101853.05;1751184;80;21812;-52
2022/03/12 02:30:36;;;;;;;28.35;13.62;;;;;;;-3.89;53.52;101855.19;1732767;81;21110;-50
2022/03/12 02:33:03;;;;;;;26.35;14.30;;;;;;;-3.88;53.44;101848.32;1746324;80;21053;-52
2022/03/12 02:35:34;;;;;;;24.85;15.15;;;;;;;-3.90;53.46;101852.61;1738899;81;21066;-52
2022/03/12 02:38:03;;;;;;;28.77;16.77;;;;;;;-3.94;53.50;101846.16;1746768;80;21015;-52
2022/03/12 02:40:30;;;;;;;28.38;16.42;;;;;;;-3.93;53.52;101849.61;1738182;80;21247;-51
2022/03/12 02:42:59;;;;;;;29.77;16.55;;;;;;;-3.91;53.53;101851.76;1723868;81;21073;-51
2022/03/12 02:45:29;;;;;;;27.07;16.87;;;;;;;-3.90;53.48;101850.91;1744227;81;21034;-51
2022/03/12 02:47:56;;;;;;;35.40;18.75;;;;;;;-3.87;53.40;101852.62;1737906;81;21073;-51
2022/03/12 02:50:23;;;;;;;32.28;18.87;;;;;;;-3.86;53.35;101852.62;1719079;81;21065;-51
2022/03/12 02:52:52;;;;;;;37.67;21.57;;;;;;;-3.85;53.29;101844.07;1731708;80;21152;-51
2022/03/12 02:55:22;;;;;;;33.78;22.22;;;;;;;-3.82;53.33;101836.77;1730916;80;21061;-51
2022/03/12 02:57:50;;;;;;;38.40;22.98;;;;;;;-3.81;53.32;101832.08;1724625;81;21022;-51
2022/03/12 03:00:18;;;;;;;35.68;22.32;;;;;;;-3.79;53.34;101829.92;1729208;81;21384;-51
2022/03/12 03:02:52;;;;;;;46.68;24.82;;;;;;;-3.79;53.27;101827.34;1722682;81;21020;-51
2022/03/12 03:05:35;;;;;;;46.35;23.22;;;;;;;-3.81;53.17;101825.20;1729506;81;21189;-51
2022/03/12 03:08:02;;;;;;;43.38;25.20;;;;;;;-3.85;53.12;101814.90;1735416;80;21068;-51
2022/03/12 03:10:42;;;;;;;47.08;25.17;;;;;;;-3.91;52.96;101818.33;1737385;81;21003;-51
2022/03/12 03:13:22;;;;;;;40.20;22.40;;;;;;;-3.93;52.82;101816.19;1729714;81;21515;-51
2022/03/12 03:15:55;;;;;;;40.58;22.95;;;;;;;-3.94;52.85;101811.45;1729732;81;21102;-52
2022/03/12 03:18:24;;;;;;;48.15;25.52;;;;;;;-4.00;52.70;101817.88;1738770;80;21258;-52
2022/03/12 03:22:52;;;;;;;53.10;26.77;;;;;;;-4.07;52.65;101801.97;1781285;78;22827;-52
2022/03/12 03:25:20;;;;;;;48.65;23.83;;;;;;;-4.18;52.61;101801.10;1753323;81;20976;-52
2022/03/12 03:27:47;;;;;;;45.33;23.52;;;;;;;-4.19;52.59;101796.80;1749946;80;21250;-52
2022/03/12 03:30:15;;;;;;;45.10;23.12;;;;;;;-4.20;52.60;101797.23;1749892;80;21033;-52
2022/03/12 03:32:42;;;;;;;50.08;25.20;;;;;;;-4.22;52.63;101796.78;1747705;80;21069;-52
2022/03/12 03:35:09;;;;;;;42.58;24.43;;;;;;;-4.18;52.66;101802.39;1752392;80;21007;-52
2022/03/12 03:37:35;;;;;;;44.83;23.25;;;;;;;-4.15;52.73;101798.11;1736631;81;21043;-52
2022/03/12 03:40:05;;;;;;;44.98;23.25;;;;;;;-4.09;52.75;101804.97;1741980;80;21148;-52
2022/03/12 03:42:31;;;;;;;43.55;22.65;;;;;;;-4.05;52.63;101800.30;1746108;80;21550;-51
2022/03/12 03:45:02;;;;;;;42.30;24.52;;;;;;;-4.03;52.52;101798.58;1688910;81;21082;-52
2022/03/12 03:47:26;;;;;;;41.50;22.52;;;;;;;-4.02;52.48;101803.28;1741952;80;21080;-52
2022/03/12 03:49:53;;;;;;;35.58;20.65;;;;;;;-4.01;52.44;101796.02;1753418;81;21117;-52
2022/03/12 03:52:19;;;;;;;38.05;20.80;;;;;;;-3.98;52.35;101796.88;1736180;80;21147;-52
2022/03/12 03:54:46;;;;;;;37.05;19.65;;;;;;;-4.03;52.27;101789.58;1735326;80;21054;-52
2022/03/12 03:57:14;;;;;;;34.53;19.95;;;;;;;-4.06;52.26;101786.99;1740801;80;21732;-52
2022/03/12 03:59:42;;;;;;;38.08;20.32;;;;;;;-4.06;52.26;101785.70;1731692;80;21030;-51
2022/03/12 04:02:08;;;;;;;40.17;21.02;;;;;;;-4.06;52.34;101782.29;1742112;80;21054;-52
2022/03/12 04:04:36;;;;;;;35.08;19.40;;;;;;;-4.08;52.21;101782.69;1737698;80;21104;-52
2022/03/12 04:07:05;;;;;;;34.92;19.82;;;;;;;-4.10;52.14;101790.42;1751157;80;21078;-51
2022/03/12 04:09:32;;;;;;;34.95;20.90;;;;;;;-4.13;52.03;101785.27;1745249;80;21012;-52
2022/03/12 04:11:58;;;;;;;46.53;24.00;;;;;;;-4.18;52.08;101783.11;1747155;81;21198;-52
2022/03/12 04:14:26;;;;;;;42.93;24.37;;;;;;;-4.20;52.20;101780.94;1752544;81;21094;-52
2022/03/12 04:16:53;;;;;;;44.25;22.52;;;;;;;-4.25;52.37;101784.80;1747690;80;21158;-52
2022/03/12 04:19:21;;;;;;;45.03;24.05;;;;;;;-4.27;52.57;101782.63;1752288;80;21031;-52
2022/03/12 04:21:48;;;;;;;44.30;24.52;;;;;;;-4.25;52.68;101786.48;1740010;80;21973;-52
2022/03/12 04:24:16;;;;;;;40.43;23.10;;;;;;;-4.30;52.75;101775.78;1731636;80;21502;-52
2022/03/12 04:26:42;;;;;;;44.75;25.17;;;;;;;-4.28;52.80;101780.92;1731238;80;21070;-52
2022/03/12 04:29:11;;;;;;;38.63;24.67;;;;;;;-4.25;52.78;101773.23;1736332;81;21075;-52
2022/03/12 04:31:39;;;;;;;49.70;24.55;;;;;;;-4.20;52.82;101774.51;1734852;81;21062;-52
2022/03/12 04:34:06;;;;;;;37.00;22.73;;;;;;;-4.14;52.74;101774.54;1731295;80;21615;-52
2022/03/12 04:36:34;;;;;;;42.23;23.60;;;;;;;-4.09;52.60;101780.98;1735919;81;21016;-52
2022/03/12 04:39:04;;;;;;;33.73;20.05;;;;;;;-4.08;52.67;101778.83;1732857;80;21070;-52
2022/03/12 04:41:34;;;;;;;39.45;22.13;;;;;;;-4.07;52.75;101769.84;1736039;80;21101;-52
2022/03/12 04:43:59;;;;;;;44.20;22.25;;;;;;;-4.01;52.68;101769.86;1729297;80;21033;-52
2022/03/12 04:46:27;;;;;;;42.15;22.98;;;;;;;-4.00;52.76;101766.45;1732248;80;21102;-51
2022/03/12 04:48:54;;;;;;;40.50;22.17;;;;;;;-3.96;52.89;101764.73;1731979;81;21009;-52
2022/03/12 04:51:21;;;;;;;44.50;23.98;;;;;;;-3.92;52.89;101768.62;1728743;82;21516;-52
2022/03/12 04:53:47;;;;;;;40.60;21.70;;;;;;;-3.86;52.93;101763.05;1731769;81;21226;-52
2022/03/12 04:56:13;;;;;;;35.55;20.60;;;;;;;-3.82;52.77;101773.32;1735735;80;21063;-52
2022/03/12 04:58:40;;;;;;;37.58;21.60;;;;;;;-3.80;52.67;101770.76;1736012;81;21067;-52
2022/03/12 05:01:07;;;;;;;35.08;20.62;;;;;;;-3.75;52.66;101770.34;1733190;80;21094;-52
2022/03/12 05:03:34;;;;;;;39.10;19.85;;;;;;;-3.67;52.76;101762.20;1737645;80;21102;-52
2022/03/12 05:06:03;;;;;;;39.42;20.23;;;;;;;-3.57;52.70;101765.20;1726314;82;21116;-52
2022/03/12 05:08:28;;;;;;;37.50;19.80;;;;;;;-3.47;52.59;101767.80;1722316;81;21600;-53
2022/03/12 05:10:56;;;;;;;38.58;19.73;;;;;;;-3.39;52.57;101760.95;1725764;82;21040;-51
2022/03/12 05:13:27;;;;;;;33.90;18.98;;;;;;;-3.28;52.53;101766.08;1722662;80;21039;-52
2022/03/12 05:15:57;;;;;;;29.05;15.93;;;;;;;-3.20;52.33;101762.63;1724666;80;21145;-51
2022/03/12 05:18:26;;;;;;;32.08;16.30;;;;;;;-3.10;51.96;101766.50;1725447;81;21576;-52
2022/03/12 05:20:53;;;;;;;25.55;14.90;;;;;;;-3.01;51.62;101766.47;1730868;80;21035;-51
2022/03/12 05:23:21;;;;;;;26.48;14.60;;;;;;;-2.93;51.31;101772.47;1737490;81;21796;-52
2022/03/12 05:25:52;;;;;;;23.38;14.45;;;;;;;-2.87;51.24;101766.03;1737473;82;21058;-52
2022/03/12 05:28:22;;;;;;;28.30;14.68;;;;;;;-2.77;51.17;101767.28;1733501;80;21561;-52
2022/03/12 05:30:50;;;;;;;26.35;12.63;;;;;;;-2.66;51.17;101760.38;1737317;80;21176;-52
2022/03/12 05:33:17;;;;;;;22.45;13.43;;;;;;;-2.52;51.15;101761.20;1737037;80;21028;-52
2022/03/12 05:35:45;;;;;;;20.20;11.35;;;;;;;-2.30;50.73;101748.23;1744240;80;21555;-51
2022/03/12 05:38:13;;;;;;;24.70;12.15;;;;;;;-2.30;50.73;101748.23;1740042;81;21082;-52
2022/03/12 05:40:41;;;;;;;27.32;13.38;;;;;;;-2.17;50.12;101751.17;1746163;80;21012;-53
2022/03/12 05:43:12;;;;;;;23.80;12.63;;;;;;;-2.04;49.80;101755.81;1733065;80;21528;-52
2022/03/12 05:45:37;;;;;;;14.47;8.93;;;;;;;-1.87;48.15;101744.10;1739728;81;21016;-52
2022/03/12 05:48:09;;;;;;;18.67;8.85;;;;;;;-1.87;48.15;101744.10;1740505;82;21069;-51
2022/03/12 05:50:35;;;;;;;14.03;7.42;;;;;;;-1.76;47.58;101747.91;1693530;82;21057;-54
2022/03/12 05:53:02;;;;;;;16.95;7.67;;;;;;;-1.77;47.63;101743.17;1702995;82;21276;-51
2022/03/12 05:55:29;;;;;;;15.78;8.15;;;;;;;-1.72;47.52;101741.85;1699331;82;21253;-51
2022/03/12 05:57:56;;;;;;;13.83;7.70;;;;;;;-1.72;47.52;101741.85;1697613;82;21085;-51
2022/03/12 06:00:22;;;;;;;16.55;7.97;;;;;;;-1.72;46.63;101738.83;1695504;82;21625;-51
2022/03/12 06:02:51;;;;;;;12.15;6.37;;;;;;;-1.75;46.75;101733.72;1687748;82;21614;-51
2022/03/12 06:05:23;;;;;;;13.78;8.10;;;;;;;-1.72;46.54;101740.12;1735582;80;21105;-53
2022/03/12 06:07:51;;;;;;;10.93;7.05;;;;;;;-1.64;45.85;101743.09;1737069;82;21729;-52
2022/03/12 06:10:24;;;;;;;14.53;7.75;;;;;;;-1.59;45.75;101741.34;1701456;82;21090;-52
2022/03/12 06:12:53;;;;;;;12.10;6.42;;;;;;;-1.59;45.75;101741.34;1742579;80;21048;-52
2022/03/12 06:15:22;;;;;;;13.68;6.60;;;;;;;-1.55;45.91;101737.41;1723133;81;21341;-52
2022/03/12 06:17:50;;;;;;;13.98;6.92;;;;;;;-1.50;45.59;101736.97;1701548;82;21042;-52
2022/03/12 06:20:22;;;;;;;12.05;6.20;;;;;;;-1.43;45.09;101727.86;1695371;82;21077;-52
2022/03/12 06:22:53;;;;;;;13.75;6.72;;;;;;;-1.36;45.28;101729.09;1698474;82;21090;-52
2022/03/12 06:25:22;;;;;;;11.63;6.17;;;;;;;-1.29;45.09;101726.02;1692598;82;21122;-51
2022/03/12 06:27:54;;;;;;;11.30;5.40;;;;;;;-1.20;44.77;101726.36;1701330;83;21067;-52
2022/03/12 06:30:25;;;;;;;10.78;5.80;;;;;;;-1.14;44.73;101721.14;1699556;82;21119;-52
2022/03/12 06:32:55;;;;;;;14.25;6.78;;;;;;;-0.96;44.55;101724.83;1704263;83;21867;-51
2022/03/12 06:35:25;;;;;;;10.88;5.83;;;;;;;-0.96;44.55;101724.83;1697393;83;21091;-51
2022/03/12 06:37:51;;;;;;;11.25;5.80;;;;;;;-0.84;44.28;101722.97;1697798;83;21055;-52
2022/03/12 06:40:20;;;;;;;15.18;6.25;;;;;;;-0.65;43.42;101716.72;1703676;82;21048;-52
2022/03/12 06:42:49;;;;;;;13.50;5.78;;;;;;;-0.65;43.42;101716.72;1692228;83;22055;-52
2022/03/12 06:45:16;;;;;;;10.75;5.80;;;;;;;-0.54;42.53;101715.73;1697968;83;21248;-52
2022/03/12 06:47:46;;;;;;;11.10;4.78;;;;;;;-0.48;42.63;101711.34;1692135;83;21118;-53
2022/03/12 06:50:17;;;;;;;15.95;5.53;;;;;;;-0.34;42.34;101709.86;1689117;83;21468;-52
2022/03/12 06:52:47;;;;;;;11.33;4.75;;;;;;;-0.34;42.34;101709.86;1690038;84;21035;-51
2022/03/12 06:55:12;;;;;;;12.18;5.15;;;;;;;-0.24;41.51;101696.36;1696789;82;21109;-52
2022/03/12 06:57:40;;;;;;;9.98;4.45;;;;;;;-0.24;41.51;101696.36;1695720;83;21272;-52
2022/03/12 07:00:14;;;;;;;8.75;5.05;;;;;;;-0.20;41.53;101705.36;1698904;83;21071;-52
2022/03/12 07:02:40;;;;;;;13.35;4.95;;;;;;;-0.13;41.44;101702.25;1701456;82;21756;-54
2022/03/12 07:05:08;;;;;;;11.20;5.10;;;;;;;0.07;40.69;101693.31;1703152;83;21091;-53
2022/03/12 07:07:37;;;;;;;9.35;4.45;;;;;;;0.07;40.69;101693.31;1700255;82;21448;-52
2022/03/12 07:10:06;;;;;;;13.40;4.75;;;;;;;0.13;40.19;101688.90;1699144;84;21163;-52
2022/03/12 07:12:36;;;;;;;8.70;4.20;;;;;;;0.21;39.68;101685.36;1701806;83;21062;-52
2022/03/12 07:15:05;;;;;;;9.65;4.25;;;;;;;0.28;39.51;101688.25;1703909;82;21066;-52
2022/03/12 07:17:33;;;;;;;7.15;3.95;;;;;;;0.38;39.32;101682.49;1696245;82;21031;-52
2022/03/12 07:19:59;;;;;;;6.87;3.25;;;;;;;0.50;38.89;101684.86;1703505;82;21020;-52
2022/03/12 07:22:28;;;;;;;7.85;3.45;;;;;;;0.61;38.94;101689.88;1702916;83;21083;-51
2022/03/12 07:24:54;;;;;;;8.33;4.60;;;;;;;0.71;38.75;101689.67;1698525;82;21051;-52
2022/03/12 07:27:21;;;;;;;8.23;3.77;;;;;;;0.81;38.40;101681.29;1702985;83;21019;-52
2022/03/12 07:29:48;;;;;;;9.20;4.15;;;;;;;0.92;37.68;101681.95;1701686;82;21308;-52
2022/03/12 07:32:15;;;;;;;6.83;3.20;;;;;;;1.02;37.74;101673.53;1698941;83;21069;-53
2022/03/12 07:34:41;;;;;;;18.10;4.08;;;;;;;1.11;37.48;101670.77;1701697;83;21146;-53
2022/03/12 07:37:11;;;;;;;9.90;3.45;;;;;;;1.21;36.97;101666.68;1704879;83;21060;-56
2022/03/12 07:39:37;;;;;;;10.58;3.30;;;;;;;1.27;37.25;101667.41;1694645;82;21023;-52
2022/03/12 07:42:05;;;;;;;6.35;2.67;;;;;;;1.35;37.09;101656.89;1697258;83;21561;-52
2022/03/12 07:44:31;;;;;;;6.40;2.60;;;;;;;1.45;36.66;101656.25;1694858;82;21109;-52
2022/03/12 07:46:59;;;;;;;8.30;2.95;;;;;;;1.57;36.91;101652.54;1704076;83;21134;-52
2022/03/12 07:49:26;;;;;;;9.00;2.70;;;;;;;1.66;36.36;101646.70;1699757;83;21045;-52
2022/03/12 07:51:53;;;;;;;5.62;2.17;;;;;;;1.75;36.15;101648.66;1701090;83;21066;-51
2022/03/12 07:54:19;;;;;;;6.70;2.87;;;;;;;1.80;36.45;101642.91;1688754;83;21067;-52
2022/03/12 07:56:46;;;;;;;8.23;2.70;;;;;;;1.89;35.97;101644.02;1688437;83;21047;-52
2022/03/12 07:59:12;;;;;;;8.15;2.90;;;;;;;1.98;35.75;101637.73;1686348;84;21077;-53
2022/03/12 08:01:39;;;;;;;5.05;2.47;;;;;;;2.06;35.20;101631.08;1684091;83;21582;-51
2022/03/12 08:04:06;;;;;;;7.35;3.30;;;;;;;2.12;35.32;101628.30;1687022;82;21101;-52
2022/03/12 08:06:33;;;;;;;5.83;2.30;;;;;;;2.19;34.39;101617.74;1699212;82;21066;-53
2022/03/12 08:09:00;;;;;;;4.92;1.85;;;;;;;2.28;34.44;101619.25;1695536;83;21039;-53
2022/03/12 08:11:30;;;;;;;6.67;2.37;;;;;;;2.36;34.32;101612.56;1700952;82;21142;-53
2022/03/12 08:14:03;;;;;;;4.62;2.12;;;;;;;2.50;33.69;101608.30;1696663;83;21091;-53
2022/03/12 08:16:31;;;;;;;5.70;2.50;;;;;;;2.58;33.06;101599.85;1695443;83;21099;-53
2022/03/12 08:18:57;;;;;;;4.90;2.35;;;;;;;2.63;33.04;101596.68;1700496;83;21067;-53
2022/03/12 08:21:24;;;;;;;7.58;2.62;;;;;;;2.71;33.01;101590.83;1703532;82;21653;-53
2022/03/12 08:23:52;;;;;;;9.83;2.87;;;;;;;2.78;32.71;101581.95;1700182;83;21051;-52
2022/03/12 08:26:20;;;;;;;5.75;2.50;;;;;;;2.89;32.38;101578.19;1697412;82;21063;-52
2022/03/12 08:28:47;;;;;;;10.10;2.25;;;;;;;2.95;31.99;101571.06;1696294;83;21087;-52
2022/03/12 08:31:15;;;;;;;6.15;2.62;;;;;;;3.03;31.66;101586.91;1699393;82;21054;-53
2022/03/12 08:33:42;;;;;;;6.00;2.08;;;;;;;3.09;32.00;101565.48;1697863;82;21115;-52
2022/03/12 08:36:09;;;;;;;5.75;2.62;;;;;;;3.19;31.93;101579.50;1695090;83;21114;-51
2022/03/12 08:38:36;;;;;;;5.25;2.30;;;;;;;3.26;31.50;101565.40;1698000;82;21098;-52
2022/03/12 08:41:05;;;;;;;6.00;2.10;;;;;;;3.34;30.89;101562.95;1699109;82;21620;-53
2022/03/12 08:43:33;;;;;;;5.37;2.40;;;;;;;3.43;30.30;101577.45;1673617;84;21504;-52
2022/03/12 08:46:01;;;;;;;6.95;2.37;;;;;;;3.52;29.72;101568.50;1692941;82;21556;-52
2022/03/12 08:48:28;;;;;;;11.00;5.53;;;;;;;3.60;29.33;101568.23;1699118;83;21169;-52
2022/03/12 08:50:55;;;;;;;7.97;2.67;;;;;;;3.60;29.94;101566.94;1697537;83;21091;-52
2022/03/12 08:53:22;;;;;;;7.25;2.50;;;;;;;3.67;30.02;101561.96;1698204;84;21436;-52
2022/03/12 08:55:49;;;;;;;6.35;2.60;;;;;;;3.70;29.17;101554.05;1691481;84;21080;-53
2022/03/12 08:58:18;;;;;;;7.22;2.72;;;;;;;3.78;29.93;101560.30;1692752;83;21087;-53
2022/03/12 09:00:45;;;;;;;8.08;3.02;;;;;;;3.85;29.89;101561.36;1696252;82;21377;-53
2022/03/12 09:03:14;;;;;;;7.87;2.70;;;;;;;3.88;30.02;101563.00;1697908;82;21113;-53
2022/03/12 09:05:42;;;;;;;5.28;2.27;;;;;;;3.91;29.96;101548.11;1699621;82;21094;-53
2022/03/12 09:08:09;;;;;;;7.22;2.80;;;;;;;3.89;28.69;101585.54;1698047;84;21091;-53
2022/03/12 09:10:35;;;;;;;8.65;3.08;;;;;;;3.84;28.95;101557.04;1699931;82;21094;-53
2022/03/12 09:13:02;;;;;;;6.37;2.75;;;;;;;3.80;28.60;101560.66;1697967;83;21194;-52
2022/03/12 09:15:29;;;;;;;8.38;3.60;;;;;;;3.74;29.29;101566.06;1704061;82;21093;-52
2022/03/12 09:17:56;;;;;;;8.28;3.40;;;;;;;3.65;29.79;101564.61;1698301;83;21078;-51
2022/03/12 09:20:23;;;;;;;12.37;5.15;;;;;;;3.66;30.35;101564.16;1700079;84;21623;-52
2022/03/12 09:22:53;;;;;;;10.23;4.30;;;;;;;3.68;30.71;101567.55;1696730;82;21134;-52
2022/03/12 09:25:20;;;;;;;7.72;3.60;;;;;;;3.69;31.19;101548.44;1691828;84;21302;-54
2022/03/12 09:27:46;;;;;;;10.30;4.20;;;;;;;3.72;31.48;101557.00;1692894;83;21105;-53
2022/03/12 09:30:15;;;;;;;8.65;4.25;;;;;;;3.74;31.75;101552.20;1696728;84;21044;-53
2022/03/12 09:32:42;;;;;;;12.40;4.83;;;;;;;3.80;31.98;101556.76;1690140;83;21120;-52
2022/03/12 09:35:11;;;;;;;8.08;4.62;;;;;;;3.87;31.95;101538.72;1687987;83;21099;-52
2022/03/12 09:37:38;;;;;;;9.03;4.60;;;;;;;3.93;31.11;101531.14;1688149;83;21941;-54
2022/03/12 09:40:06;;;;;;;7.50;3.60;;;;;;;4.01;31.95;101534.80;1688248;83;21008;-53
2022/03/12 09:42:34;;;;;;;8.53;4.05;;;;;;;4.02;31.08;101530.00;1688595;83;21095;-53
2022/03/12 09:45:02;;;;;;;7.85;4.22;;;;;;;4.07;31.02;101518.97;1690443;84;21044;-53
2022/03/12 09:47:29;;;;;;;9.53;3.05;;;;;;;4.16;30.58;101518.63;1689081;83;21088;-53
2022/03/12 09:49:56;;;;;;;6.62;3.35;;;;;;;4.24;28.71;101514.47;1697851;84;21164;-53
2022/03/12 09:52:23;;;;;;;6.47;3.05;;;;;;;4.31;27.45;101515.94;1691666;83;21147;-53
2022/03/12 09:54:50;;;;;;;9.50;3.17;;;;;;;4.41;27.71;101517.31;1688396;84;21934;-54
2022/03/12 09:57:17;;;;;;;6.60;2.95;;;;;;;4.49;28.20;101518.78;1690568;83;21067;-53
2022/03/12 09:59:44;;;;;;;6.50;3.22;;;;;;;4.54;27.71;101499.48;1689880;84;21075;-53
2022/03/12 10:02:11;;;;;;;8.55;3.37;;;;;;;4.60;26.45;101496.62;1689420;83;22396;-54
2022/03/12 10:04:38;;;;;;;8.85;4.17;;;;;;;4.63;26.68;101500.42;1691137;83;21126;-53
2022/03/12 10:07:09;;;;;;;7.35;3.85;;;;;;;4.61;26.80;101494.89;1691671;83;21066;-53
2022/03/12 10:09:35;;;;;;;8.95;3.70;;;;;;;4.64;26.80;101490.41;1691547;83;21465;-53
2022/03/12 10:12:04;;;;;;;12.00;3.85;;;;;;;4.69;27.18;101493.28;1689450;83;21052;-53
2022/03/12 10:14:32;;;;;;;7.97;3.70;;;;;;;4.68;26.60;101483.77;1688506;83;21224;-53
2022/03/12 10:17:02;;;;;;;9.88;3.98;;;;;;;4.71;26.43;101491.45;1695972;83;21145;-53
2022/03/12 10:19:27;;;;;;;7.12;3.67;;;;;;;4.71;25.98;101486.24;1686006;83;21122;-53
2022/03/12 10:21:54;;;;;;;10.88;3.98;;;;;;;4.71;26.25;101483.20;1687863;83;21085;-54
2022/03/12 10:24:20;;;;;;;9.00;3.70;;;;;;;4.76;26.19;101481.73;1692896;82;21019;-54
2022/03/12 10:26:48;;;;;;;9.38;3.75;;;;;;;4.78;26.10;101471.63;1701707;82;21148;-54
2022/03/12 10:29:16;;;;;;;7.92;4.15;;;;;;;4.82;26.61;101459.31;1697983;83;21071;-53
2022/03/12 10:31:43;;;;;;;12.55;4.78;;;;;;;4.94;26.49;101458.85;1697958;82;21831;-53
2022/03/12 10:34:24;;;;;;;9.68;4.78;;;;;;;5.01;26.50;101451.17;1698086;83;21098;-53
2022/03/12 10:36:54;;;;;;;12.60;4.83;;;;;;;5.11;26.55;101450.36;1694600;82;21158;-52
2022/03/12 10:39:36;;;;;;;11.55;4.62;;;;;;;5.15;25.93;101436.27;1695048;84;21904;-52
2022/03/12 10:42:08;;;;;;;11.75;4.92;;;;;;;5.18;26.76;101434.00;1697267;82;21071;-52
2022/03/12 10:44:37;;;;;;;10.03;5.00;;;;;;;5.23;27.44;101427.27;1688402;84;21082;-53
2022/03/12 10:47:21;;;;;;;8.13;3.77;;;;;;;5.25;26.21;101424.16;1699393;83;21052;-51
2022/03/12 10:49:58;;;;;;;12.80;4.40;;;;;;;5.27;26.31;101423.17;1686572;83;21517;-52
2022/03/12 10:52:31;;;;;;;15.63;5.10;;;;;;;5.27;25.90;101423.17;1690446;83;21149;-52
2022/03/12 10:54:59;;;;;;;9.75;4.35;;;;;;;5.32;25.81;101410.78;1693293;83;21595;-52
2022/03/12 10:57:27;;;;;;;10.40;4.65;;;;;;;5.32;25.21;101412.08;1695495;83;21317;-52
2022/03/12 10:59:54;;;;;;;8.40;3.37;;;;;;;5.39;26.12;101413.98;1696571;83;21119;-52
2022/03/12 11:02:22;;;;;;;6.53;3.55;;;;;;;5.42;27.28;101409.94;1698435;83;21133;-53
2022/03/12 11:04:48;;;;;;;9.05;3.52;;;;;;;5.42;27.20;101397.36;1694650;84;21136;-53
2022/03/12 11:07:27;;;;;;;8.85;4.28;;;;;;;5.44;27.89;101409.41;1691595;82;21596;-51
2022/03/12 11:09:54;;;;;;;7.95;4.08;;;;;;;5.46;27.82;101404.13;1696205;83;21075;-52
2022/03/12 11:12:30;;;;;;;9.13;3.75;;;;;;;5.50;27.56;101401.80;1699616;83;21087;-52
2022/03/12 11:15:01;;;;;;;10.00;3.60;;;;;;;5.50;27.36;101398.72;1700512;83;21050;-52
2022/03/12 11:17:29;;;;;;;9.78;4.62;;;;;;;5.50;27.64;101384.36;1703669;83;22325;-52
2022/03/12 11:19:57;;;;;;;10.90;4.42;;;;;;;5.55;27.90;101390.70;1690765;83;21004;-52
2022/03/12 11:22:24;;;;;;;9.48;4.53;;;;;;;5.58;27.38;101394.46;1698029;82;21063;-52
2022/03/12 11:24:52;;;;;;;9.25;4.60;;;;;;;5.57;27.81;101387.56;1699461;83;21061;-52
2022/03/12 11:27:32;;;;;;;7.12;3.55;;;;;;;5.57;27.46;101384.48;1699631;82;21075;-52